sensor_id;sensor_type;location;lat;lon;timestamp;pressure;altitude;pressure_sealevel;temperature;humidity
22241;BME280;11289;52.524;13.694;2023-05-21T00:01:18;101406.31;;;15.99;70.77
22241;BME280;11289;52.524;13.694;2023-05-21T00:03:44;101402.56;;;15.95;70.83
22241;BME280;11289;52.524;13.694;2023-05-21T00:06:11;101390.06;;;15.92;70.77
22241;BME280;11289;52.524;13.694;2023-05-21T00:08:38;101401.88;;;15.98;70.71
22241;BME280;11289;52.524;13.694;2023-05-21T00:11:05;101405.47;;;15.98;70.96
22241;BME280;11289;52.524;13.694;2023-05-21T00:13:31;101399.75;;;15.95;70.63
22241;BME280;11289;52.524;13.694;2023-05-21T00:15:57;101399.28;;;15.93;70.92
22241;BME280;11289;52.524;13.694;2023-05-21T00:18:23;101379.69;;;15.80;71.07
22241;BME280;11289;52.524;13.694;2023-05-21T00:20:50;101398.81;;;15.91;71.10
22241;BME280;11289;52.524;13.694;2023-05-21T00:23:16;101390.63;;;15.86;71.17
22241;BME280;11289;52.524;13.694;2023-05-21T00:25:44;101381.78;;;15.83;71.17
22241;BME280;11289;52.524;13.694;2023-05-21T00:28:11;101389.25;;;15.79;71.33
22241;BME280;11289;52.524;13.694;2023-05-21T00:30:37;101385.47;;;15.75;72.03
22241;BME280;11289;52.524;13.694;2023-05-21T00:33:04;101386.66;;;15.74;71.72
22241;BME280;11289;52.524;13.694;2023-05-21T00:35:30;101367.81;;;15.62;71.82
22241;BME280;11289;52.524;13.694;2023-05-21T00:37:56;101376.59;;;15.73;71.87
22241;BME280;11289;52.524;13.694;2023-05-21T00:40:23;101369.59;;;15.67;71.95
22241;BME280;11289;52.524;13.694;2023-05-21T00:42:49;101378.47;;;15.69;72.19
22241;BME280;11289;52.524;13.694;2023-05-21T00:45:15;101376.38;;;15.66;72.17
22241;BME280;11289;52.524;13.694;2023-05-21T00:47:42;101375.22;;;15.67;72.26
22241;BME280;11289;52.524;13.694;2023-05-21T00:50:09;101364.22;;;15.62;72.37
22241;BME280;11289;52.524;13.694;2023-05-21T00:52:36;101381.47;;;15.64;72.49
22241;BME280;11289;52.524;13.694;2023-05-21T00:55:07;101363.75;;;15.60;72.67
22241;BME280;11289;52.524;13.694;2023-05-21T00:57:34;101367.81;;;15.62;73.37
22241;BME280;11289;52.524;13.694;2023-05-21T01:00:03;101360.97;;;15.60;73.26
22241;BME280;11289;52.524;13.694;2023-05-21T01:02:32;101365.63;;;15.56;73.31
22241;BME280;11289;52.524;13.694;2023-05-21T01:04:59;101353.47;;;15.52;73.19
22241;BME280;11289;52.524;13.694;2023-05-21T01:07:25;101363.97;;;15.55;73.34
22241;BME280;11289;52.524;13.694;2023-05-21T01:09:51;101349.72;;;15.47;73.34
22241;BME280;11289;52.524;13.694;2023-05-21T01:12:19;101354.19;;;15.48;73.47
22241;BME280;11289;52.524;13.694;2023-05-21T01:14:46;101360.47;;;15.45;73.65
22241;BME280;11289;52.524;13.694;2023-05-21T01:17:13;101340.75;;;15.42;73.74
22241;BME280;11289;52.524;13.694;2023-05-21T01:19:39;101341.78;;;15.37;74.14
22241;BME280;11289;52.524;13.694;2023-05-21T01:22:07;101348.78;;;15.43;74.19
22241;BME280;11289;52.524;13.694;2023-05-21T01:24:34;101352.78;;;15.42;74.29
22241;BME280;11289;52.524;13.694;2023-05-21T01:27:01;101349.03;;;15.38;74.49
22241;BME280;11289;52.524;13.694;2023-05-21T01:29:27;101352.88;;;15.34;74.74
22241;BME280;11289;52.524;13.694;2023-05-21T01:32:03;101356.47;;;15.34;75.00
22241;BME280;11289;52.524;13.694;2023-05-21T01:35:11;101351.22;;;15.32;75.20
22241;BME280;11289;52.524;13.694;2023-05-21T01:37:49;101341.41;;;15.26;75.32
22241;BME280;11289;52.524;13.694;2023-05-21T01:40:27;101333.69;;;15.23;75.72
22241;BME280;11289;52.524;13.694;2023-05-21T01:42:54;101340.47;;;15.22;75.51
22241;BME280;11289;52.524;13.694;2023-05-21T01:45:22;101344.56;;;15.25;75.88
22241;BME280;11289;52.524;13.694;2023-05-21T01:47:51;101356.91;;;15.24;75.79
22241;BME280;11289;52.524;13.694;2023-05-21T01:50:18;101346.88;;;15.23;76.01
22241;BME280;11289;52.524;13.694;2023-05-21T01:52:54;101330.41;;;15.09;76.36
22241;BME280;11289;52.524;13.694;2023-05-21T01:55:25;101343.47;;;15.17;76.44
22241;BME280;11289;52.524;13.694;2023-05-21T01:57:54;101337.16;;;15.08;77.16
22241;BME280;11289;52.524;13.694;2023-05-21T02:00:21;101341.72;;;15.12;76.78
22241;BME280;11289;52.524;13.694;2023-05-21T02:02:48;101341.72;;;15.12;76.87
22241;BME280;11289;52.524;13.694;2023-05-21T02:05:14;101340.06;;;15.11;77.29
22241;BME280;11289;52.524;13.694;2023-05-21T02:07:41;101339.69;;;15.01;77.71
22241;BME280;11289;52.524;13.694;2023-05-21T02:10:11;101337.50;;;15.06;77.26
22241;BME280;11289;52.524;13.694;2023-05-21T02:12:37;101333.25;;;15.00;77.97
22241;BME280;11289;52.524;13.694;2023-05-21T02:15:04;101318.44;;;14.87;77.89
22241;BME280;11289;52.524;13.694;2023-05-21T02:17:31;101314.81;;;14.87;78.46
22241;BME280;11289;52.524;13.694;2023-05-21T02:19:59;101325.44;;;14.93;78.50
22241;BME280;11289;52.524;13.694;2023-05-21T02:22:38;101331.66;;;14.99;78.23
22241;BME280;11289;52.524;13.694;2023-05-21T02:25:06;101309.56;;;14.85;78.01
22241;BME280;11289;52.524;13.694;2023-05-21T02:27:34;101332.34;;;14.96;78.39
22241;BME280;11289;52.524;13.694;2023-05-21T02:30:02;101345.97;;;14.97;78.27
22241;BME280;11289;52.524;13.694;2023-05-21T02:32:29;101333.84;;;14.93;79.23
22241;BME280;11289;52.524;13.694;2023-05-21T02:34:57;101336.16;;;14.91;78.75
22241;BME280;11289;52.524;13.694;2023-05-21T02:37:26;101340.13;;;14.90;79.26
22241;BME280;11289;52.524;13.694;2023-05-21T02:39:53;101337.66;;;14.89;78.86
22241;BME280;11289;52.524;13.694;2023-05-21T02:42:21;101337.66;;;14.89;79.52
22241;BME280;11289;52.524;13.694;2023-05-21T02:44:48;101335.06;;;14.84;78.89
22241;BME280;11289;52.524;13.694;2023-05-21T02:47:16;101326.34;;;14.85;79.19
22241;BME280;11289;52.524;13.694;2023-05-21T02:49:42;101313.94;;;14.74;78.97
22241;BME280;11289;52.524;13.694;2023-05-21T02:52:08;101335.22;;;14.87;79.02
22241;BME280;11289;52.524;13.694;2023-05-21T02:54:34;101322.25;;;14.83;79.25
22241;BME280;11289;52.524;13.694;2023-05-21T02:57:01;101330.19;;;14.80;79.65
22241;BME280;11289;52.524;13.694;2023-05-21T02:59:27;101299.94;;;14.61;79.38
22241;BME280;11289;52.524;13.694;2023-05-21T03:01:53;101297.75;;;14.67;79.39
22241;BME280;11289;52.524;13.694;2023-05-21T03:04:19;101312.09;;;14.78;79.00
22241;BME280;11289;52.524;13.694;2023-05-21T03:06:48;101309.66;;;14.76;79.07
22241;BME280;11289;52.524;13.694;2023-05-21T03:09:14;101313.28;;;14.77;79.75
22241;BME280;11289;52.524;13.694;2023-05-21T03:11:41;101314.09;;;14.77;79.97
22241;BME280;11289;52.524;13.694;2023-05-21T03:14:07;101304.69;;;14.61;79.70
22241;BME280;11289;52.524;13.694;2023-05-21T03:16:34;101319.06;;;14.72;79.88
22241;BME280;11289;52.524;13.694;2023-05-21T03:19:00;101325.13;;;14.74;80.04
22241;BME280;11289;52.524;13.694;2023-05-21T03:21:26;101318.25;;;14.71;80.12
22241;BME280;11289;52.524;13.694;2023-05-21T03:23:55;101314.50;;;14.67;80.28
22241;BME280;11289;52.524;13.694;2023-05-21T03:26:25;101331.06;;;14.72;81.03
22241;BME280;11289;52.524;13.694;2023-05-21T03:28:52;101322.66;;;14.72;80.67
22241;BME280;11289;52.524;13.694;2023-05-21T03:31:18;101316.16;;;14.68;80.74
22241;BME280;11289;52.524;13.694;2023-05-21T03:33:44;101324.19;;;14.70;81.09
22241;BME280;11289;52.524;13.694;2023-05-21T03:36:10;101324.31;;;14.73;80.85
22241;BME280;11289;52.524;13.694;2023-05-21T03:38:36;101319.53;;;14.74;80.84
22241;BME280;11289;52.524;13.694;2023-05-21T03:41:02;101320.38;;;14.74;81.35
22241;BME280;11289;52.524;13.694;2023-05-21T03:43:28;101321.88;;;14.72;81.26
22241;BME280;11289;52.524;13.694;2023-05-21T03:45:54;101328.25;;;14.72;81.85
22241;BME280;11289;52.524;13.694;2023-05-21T03:48:20;101327.25;;;14.77;81.67
22241;BME280;11289;52.524;13.694;2023-05-21T03:50:46;101304.19;;;14.59;81.61
22241;BME280;11289;52.524;13.694;2023-05-21T03:53:12;101311.22;;;14.65;81.86
22241;BME280;11289;52.524;13.694;2023-05-21T03:55:39;101308.44;;;14.65;81.67
22241;BME280;11289;52.524;13.694;2023-05-21T03:58:05;101310.88;;;14.67;81.70
22241;BME280;11289;52.524;13.694;2023-05-21T04:00:32;101327.56;;;14.75;82.34
22241;BME280;11289;52.524;13.694;2023-05-21T04:02:59;101325.28;;;14.77;82.57
22241;BME280;11289;52.524;13.694;2023-05-21T04:05:25;101333.66;;;14.77;83.27
22241;BME280;11289;52.524;13.694;2023-05-21T04:07:51;101325.28;;;14.77;82.59
22241;BME280;11289;52.524;13.694;2023-05-21T04:10:17;101330.63;;;14.83;82.88
22241;BME280;11289;52.524;13.694;2023-05-21T04:12:43;101328.19;;;14.81;83.13
22241;BME280;11289;52.524;13.694;2023-05-21T04:15:09;101320.28;;;14.83;82.62
22241;BME280;11289;52.524;13.694;2023-05-21T04:17:35;101330.09;;;14.89;82.53
22241;BME280;11289;52.524;13.694;2023-05-21T04:20:01;101330.25;;;14.93;82.40
22241;BME280;11289;52.524;13.694;2023-05-21T04:22:27;101328.72;;;14.95;83.01
22241;BME280;11289;52.524;13.694;2023-05-21T04:24:53;101337.72;;;15.01;82.56
22241;BME280;11289;52.524;13.694;2023-05-21T04:27:22;101329.81;;;15.03;82.68
22241;BME280;11289;52.524;13.694;2023-05-21T04:29:49;101336.00;;;15.09;82.55
22241;BME280;11289;52.524;13.694;2023-05-21T04:32:15;101340.06;;;15.11;82.62
22241;BME280;11289;52.524;13.694;2023-05-21T04:34:43;101338.56;;;15.14;82.82
22241;BME280;11289;52.524;13.694;2023-05-21T04:37:09;101334.28;;;15.17;82.67
22241;BME280;11289;52.524;13.694;2023-05-21T04:39:35;101340.13;;;15.24;82.27
22241;BME280;11289;52.524;13.694;2023-05-21T04:42:01;101339.88;;;15.29;82.80
22241;BME280;11289;52.524;13.694;2023-05-21T04:44:30;101337.22;;;15.32;82.78
22241;BME280;11289;52.524;13.694;2023-05-21T04:46:56;101312.16;;;15.24;82.99
22241;BME280;11289;52.524;13.694;2023-05-21T04:49:23;101314.84;;;15.32;82.62
22241;BME280;11289;52.524;13.694;2023-05-21T04:51:49;101336.56;;;15.48;82.91
22241;BME280;11289;52.524;13.694;2023-05-21T04:54:15;101324.31;;;15.40;83.05
22241;BME280;11289;52.524;13.694;2023-05-21T04:56:41;101334.34;;;15.54;82.97
22241;BME280;11289;52.524;13.694;2023-05-21T04:59:07;101338.22;;;15.61;82.45
22241;BME280;11289;52.524;13.694;2023-05-21T05:01:33;101337.63;;;15.68;82.54
22241;BME280;11289;52.524;13.694;2023-05-21T05:04:00;101339.16;;;15.78;82.46
22241;BME280;11289;52.524;13.694;2023-05-21T05:06:26;101338.16;;;15.82;82.02
22241;BME280;11289;52.524;13.694;2023-05-21T05:08:52;101342.34;;;15.89;81.85
22241;BME280;11289;52.524;13.694;2023-05-21T05:11:18;101350.53;;;15.94;81.89
22241;BME280;11289;52.524;13.694;2023-05-21T05:13:44;101341.06;;;15.98;81.44
22241;BME280;11289;52.524;13.694;2023-05-21T05:16:10;101340.50;;;16.05;81.30
22241;BME280;11289;52.524;13.694;2023-05-21T05:18:37;101348.28;;;16.12;80.97
22241;BME280;11289;52.524;13.694;2023-05-21T05:21:03;101348.06;;;16.17;80.66
22241;BME280;11289;52.524;13.694;2023-05-21T05:23:29;101351.91;;;16.25;80.57
22241;BME280;11289;52.524;13.694;2023-05-21T05:25:55;101343.72;;;16.32;80.43
22241;BME280;11289;52.524;13.694;2023-05-21T05:28:21;101338.34;;;16.39;80.07
22241;BME280;11289;52.524;13.694;2023-05-21T05:30:47;101335.75;;;16.46;79.32
22241;BME280;11289;52.524;13.694;2023-05-21T05:33:13;101343.66;;;16.57;78.94
22241;BME280;11289;52.524;13.694;2023-05-21T05:35:39;101345.53;;;16.65;78.76
22241;BME280;11289;52.524;13.694;2023-05-21T05:38:05;101342.66;;;16.77;78.26
22241;BME280;11289;52.524;13.694;2023-05-21T05:40:33;101330.75;;;16.80;78.30
22241;BME280;11289;52.524;13.694;2023-05-21T05:43:01;101325.56;;;16.95;77.03
22241;BME280;11289;52.524;13.694;2023-05-21T05:45:27;101328.09;;;17.12;76.42
22241;BME280;11289;52.524;13.694;2023-05-21T05:47:53;101355.19;;;17.36;75.30
22241;BME280;11289;52.524;13.694;2023-05-21T05:50:19;101342.69;;;17.50;74.51
22241;BME280;11289;52.524;13.694;2023-05-21T05:52:45;101351.41;;;17.61;73.62
22241;BME280;11289;52.524;13.694;2023-05-21T05:55:11;101348.13;;;17.74;73.02
22241;BME280;11289;52.524;13.694;2023-05-21T05:57:37;101320.88;;;17.75;72.94
22241;BME280;11289;52.524;13.694;2023-05-21T06:00:04;101339.22;;;18.01;72.90
22241;BME280;11289;52.524;13.694;2023-05-21T06:02:30;101338.97;;;18.25;72.13
22241;BME280;11289;52.524;13.694;2023-05-21T06:04:56;101321.38;;;18.29;71.94
22241;BME280;11289;52.524;13.694;2023-05-21T06:07:23;101330.72;;;18.52;70.38
22241;BME280;11289;52.524;13.694;2023-05-21T06:09:49;101337.03;;;18.65;70.18
22241;BME280;11289;52.524;13.694;2023-05-21T06:12:15;101326.97;;;18.84;69.90
22241;BME280;11289;52.524;13.694;2023-05-21T06:14:41;101340.63;;;19.01;68.53
22241;BME280;11289;52.524;13.694;2023-05-21T06:17:07;101308.41;;;18.99;68.28
22241;BME280;11289;52.524;13.694;2023-05-21T06:19:33;101310.19;;;19.07;67.18
22241;BME280;11289;52.524;13.694;2023-05-21T06:21:59;101329.41;;;19.24;67.00
22241;BME280;11289;52.524;13.694;2023-05-21T06:24:25;101329.97;;;19.34;67.12
22241;BME280;11289;52.524;13.694;2023-05-21T06:26:51;101325.34;;;19.45;66.71
22241;BME280;11289;52.524;13.694;2023-05-21T06:29:17;101320.66;;;19.53;66.14
22241;BME280;11289;52.524;13.694;2023-05-21T06:31:43;101319.59;;;19.61;66.24
22241;BME280;11289;52.524;13.694;2023-05-21T06:34:09;101315.22;;;19.63;65.20
22241;BME280;11289;52.524;13.694;2023-05-21T06:36:36;101318.34;;;19.58;65.70
22241;BME280;11289;52.524;13.694;2023-05-21T06:39:04;101305.03;;;19.55;65.31
22241;BME280;11289;52.524;13.694;2023-05-21T06:41:30;101318.09;;;19.67;64.86
22241;BME280;11289;52.524;13.694;2023-05-21T06:43:56;101304.56;;;19.53;65.36
22241;BME280;11289;52.524;13.694;2023-05-21T06:46:29;101301.31;;;19.51;65.37
22241;BME280;11289;52.524;13.694;2023-05-21T06:48:55;101319.72;;;19.68;65.91
22241;BME280;11289;52.524;13.694;2023-05-21T06:51:22;101320.84;;;19.63;65.34
22241;BME280;11289;52.524;13.694;2023-05-21T06:53:48;101315.28;;;19.67;65.37
22241;BME280;11289;52.524;13.694;2023-05-21T06:56:15;101316.56;;;19.73;65.36
22241;BME280;11289;52.524;13.694;2023-05-21T06:58:41;101319.13;;;19.78;65.10
22241;BME280;11289;52.524;13.694;2023-05-21T07:01:07;101318.59;;;19.73;65.17
22241;BME280;11289;52.524;13.694;2023-05-21T07:03:33;101322.09;;;19.89;64.90
22241;BME280;11289;52.524;13.694;2023-05-21T07:06:00;101301.84;;;19.80;64.64
22241;BME280;11289;52.524;13.694;2023-05-21T07:08:26;101317.34;;;19.93;64.87
22241;BME280;11289;52.524;13.694;2023-05-21T07:10:52;101312.56;;;19.97;64.61
22241;BME280;11289;52.524;13.694;2023-05-21T07:13:18;101306.13;;;19.97;64.21
22241;BME280;11289;52.524;13.694;2023-05-21T07:15:44;101299.28;;;19.98;64.02
22241;BME280;11289;52.524;13.694;2023-05-21T07:18:10;101316.03;;;20.14;64.29
22241;BME280;11289;52.524;13.694;2023-05-21T07:20:36;101325.34;;;20.18;63.77
22241;BME280;11289;52.524;13.694;2023-05-21T07:23:02;101320.16;;;20.20;63.50
22241;BME280;11289;52.524;13.694;2023-05-21T07:25:29;101327.53;;;20.28;63.90
22241;BME280;11289;52.524;13.694;2023-05-21T07:27:55;101305.25;;;20.20;63.22
22241;BME280;11289;52.524;13.694;2023-05-21T07:30:21;101310.97;;;20.27;63.77
22241;BME280;11289;52.524;13.694;2023-05-21T07:32:47;101293.97;;;20.20;63.63
22241;BME280;11289;52.524;13.694;2023-05-21T07:35:13;101322.88;;;20.43;63.82
22241;BME280;11289;52.524;13.694;2023-05-21T07:37:39;101325.09;;;20.57;63.15
22241;BME280;11289;52.524;13.694;2023-05-21T07:40:06;101315.19;;;20.67;62.67
22241;BME280;11289;52.524;13.694;2023-05-21T07:42:32;101301.66;;;20.80;63.17
22241;BME280;11289;52.524;13.694;2023-05-21T07:44:59;101310.06;;;21.10;62.05
22241;BME280;11289;52.524;13.694;2023-05-21T07:47:26;101318.88;;;21.46;60.23
22241;BME280;11289;52.524;13.694;2023-05-21T07:49:52;101314.34;;;21.79;60.61
22241;BME280;11289;52.524;13.694;2023-05-21T07:52:18;101315.97;;;21.80;58.59
22241;BME280;11289;52.524;13.694;2023-05-21T07:54:45;101303.16;;;21.94;58.07
22241;BME280;11289;52.524;13.694;2023-05-21T07:57:14;101293.19;;;22.11;58.71
22241;BME280;11289;52.524;13.694;2023-05-21T07:59:40;101315.66;;;22.52;57.79
22241;BME280;11289;52.524;13.694;2023-05-21T08:02:06;101298.38;;;22.71;56.32
22241;BME280;11289;52.524;13.694;2023-05-21T08:04:32;101292.75;;;22.93;55.65
22241;BME280;11289;52.524;13.694;2023-05-21T08:07:00;101294.88;;;23.32;55.66
22241;BME280;11289;52.524;13.694;2023-05-21T08:09:26;101311.50;;;23.59;54.00
22241;BME280;11289;52.524;13.694;2023-05-21T08:11:56;101298.94;;;23.74;52.48
22241;BME280;11289;52.524;13.694;2023-05-21T08:14:23;101307.06;;;24.08;52.07
22241;BME280;11289;52.524;13.694;2023-05-21T08:16:51;101308.19;;;24.32;51.11
22241;BME280;11289;52.524;13.694;2023-05-21T08:19:19;101300.47;;;24.44;50.71
22241;BME280;11289;52.524;13.694;2023-05-21T08:21:48;101315.00;;;24.71;49.98
22241;BME280;11289;52.524;13.694;2023-05-21T08:24:14;101312.84;;;24.97;49.82
22241;BME280;11289;52.524;13.694;2023-05-21T08:26:41;101298.94;;;25.13;49.03
22241;BME280;11289;52.524;13.694;2023-05-21T08:29:12;101303.72;;;25.31;47.01
22241;BME280;11289;52.524;13.694;2023-05-21T08:31:39;101320.31;;;25.43;48.00
22241;BME280;11289;52.524;13.694;2023-05-21T08:34:05;101297.47;;;25.54;47.69
22241;BME280;11289;52.524;13.694;2023-05-21T08:36:32;101314.09;;;25.55;46.79
22241;BME280;11289;52.524;13.694;2023-05-21T08:38:59;101317.19;;;25.79;47.43
22241;BME280;11289;52.524;13.694;2023-05-21T08:41:26;101317.94;;;25.83;46.58
22241;BME280;11289;52.524;13.694;2023-05-21T08:44:00;101285.06;;;25.82;46.44
22241;BME280;11289;52.524;13.694;2023-05-21T08:46:31;101314.59;;;25.92;45.79
22241;BME280;11289;52.524;13.694;2023-05-21T08:49:16;101301.38;;;26.16;45.22
22241;BME280;11289;52.524;13.694;2023-05-21T08:51:45;101309.47;;;26.21;45.31
22241;BME280;11289;52.524;13.694;2023-05-21T08:54:21;101307.56;;;26.46;45.12
22241;BME280;11289;52.524;13.694;2023-05-21T08:56:48;101294.91;;;26.50;43.84
22241;BME280;11289;52.524;13.694;2023-05-21T08:59:19;101294.06;;;26.53;44.86
22241;BME280;11289;52.524;13.694;2023-05-21T09:01:46;101286.69;;;26.56;43.92
22241;BME280;11289;52.524;13.694;2023-05-21T09:04:16;101279.31;;;26.62;44.22
22241;BME280;11289;52.524;13.694;2023-05-21T09:06:42;101290.13;;;26.78;43.55
22241;BME280;11289;52.524;13.694;2023-05-21T09:09:16;101275.34;;;26.87;43.96
22241;BME280;11289;52.524;13.694;2023-05-21T09:11:45;101290.75;;;26.89;43.52
22241;BME280;11289;52.524;13.694;2023-05-21T09:14:12;101299.31;;;27.17;43.35
22241;BME280;11289;52.524;13.694;2023-05-21T09:16:39;101286.22;;;26.96;43.37
22241;BME280;11289;52.524;13.694;2023-05-21T09:19:05;101285.88;;;26.90;43.16
22241;BME280;11289;52.524;13.694;2023-05-21T09:21:32;101293.63;;;27.17;42.86
22241;BME280;11289;52.524;13.694;2023-05-21T09:23:58;101304.88;;;27.27;41.93
22241;BME280;11289;52.524;13.694;2023-05-21T09:26:25;101296.69;;;27.30;42.47
22241;BME280;11289;52.524;13.694;2023-05-21T09:28:56;101292.66;;;27.54;43.27
22241;BME280;11289;52.524;13.694;2023-05-21T09:31:23;101293.97;;;27.73;42.19
22241;BME280;11289;52.524;13.694;2023-05-21T09:34:01;101298.22;;;27.85;42.36
22241;BME280;11289;52.524;13.694;2023-05-21T09:36:27;101293.28;;;27.89;40.61
22241;BME280;11289;52.524;13.694;2023-05-21T09:39:09;101299.63;;;28.01;41.13
22241;BME280;11289;52.524;13.694;2023-05-21T09:41:56;101285.09;;;27.91;41.27
22241;BME280;11289;52.524;13.694;2023-05-21T09:44:23;101300.28;;;28.08;40.40
22241;BME280;11289;52.524;13.694;2023-05-21T09:46:49;101293.91;;;28.01;41.05
22241;BME280;11289;52.524;13.694;2023-05-21T09:49:22;101287.66;;;27.86;41.24
22241;BME280;11289;52.524;13.694;2023-05-21T09:51:49;101278.72;;;27.84;41.41
22241;BME280;11289;52.524;13.694;2023-05-21T09:54:15;101285.72;;;27.79;40.84
22241;BME280;11289;52.524;13.694;2023-05-21T09:56:41;101275.75;;;27.67;41.05
22241;BME280;11289;52.524;13.694;2023-05-21T09:59:07;101270.59;;;27.58;41.95
22241;BME280;11289;52.524;13.694;2023-05-21T10:01:33;101284.34;;;27.63;42.11
22241;BME280;11289;52.524;13.694;2023-05-21T10:04:05;101278.59;;;27.67;41.44
22241;BME280;11289;52.524;13.694;2023-05-21T10:06:34;101278.41;;;27.54;42.31
22241;BME280;11289;52.524;13.694;2023-05-21T10:09:06;101269.16;;;27.70;41.90
22241;BME280;11289;52.524;13.694;2023-05-21T10:11:33;101274.88;;;27.70;41.34
22241;BME280;11289;52.524;13.694;2023-05-21T10:14:06;101271.09;;;28.01;41.02
22241;BME280;11289;52.524;13.694;2023-05-21T10:16:34;101275.38;;;27.89;40.51
22241;BME280;11289;52.524;13.694;2023-05-21T10:19:00;101252.00;;;27.98;39.87
22241;BME280;11289;52.524;13.694;2023-05-21T10:21:27;101259.19;;;28.26;39.95
22241;BME280;11289;52.524;13.694;2023-05-21T10:23:56;101257.66;;;28.41;39.61
22241;BME280;11289;52.524;13.694;2023-05-21T10:26:22;101257.94;;;28.47;39.03
22241;BME280;11289;52.524;13.694;2023-05-21T10:28:54;101256.47;;;28.79;39.27
22241;BME280;11289;52.524;13.694;2023-05-21T10:31:21;101245.50;;;28.94;37.79
22241;BME280;11289;52.524;13.694;2023-05-21T10:33:48;101247.31;;;29.04;37.80
22241;BME280;11289;52.524;13.694;2023-05-21T10:36:16;101248.44;;;29.27;36.61
22241;BME280;11289;52.524;13.694;2023-05-21T10:38:47;101229.00;;;29.01;36.50
22241;BME280;11289;52.524;13.694;2023-05-21T10:41:17;101251.91;;;29.34;35.94
22241;BME280;11289;52.524;13.694;2023-05-21T10:46:38;101242.66;;;29.76;36.35
22241;BME280;11289;52.524;13.694;2023-05-21T10:49:37;101219.06;;;29.89;36.01
22241;BME280;11289;52.524;13.694;2023-05-21T10:52:23;101234.03;;;30.09;34.65
22241;BME280;11289;52.524;13.694;2023-05-21T10:58:45;101238.94;;;30.09;34.87
22241;BME280;11289;52.524;13.694;2023-05-21T11:01:17;101215.38;;;30.17;34.10
22241;BME280;11289;52.524;13.694;2023-05-21T11:03:59;101221.84;;;30.34;33.65
22241;BME280;11289;52.524;13.694;2023-05-21T11:06:25;101219.75;;;30.22;32.46
22241;BME280;11289;52.524;13.694;2023-05-21T11:09:22;101215.88;;;30.29;32.35
22241;BME280;11289;52.524;13.694;2023-05-21T11:11:59;101225.16;;;30.33;32.14
22241;BME280;11289;52.524;13.694;2023-05-21T11:14:58;101221.91;;;30.47;32.88
22241;BME280;11289;52.524;13.694;2023-05-21T11:18:02;101233.03;;;30.58;33.41
22241;BME280;11289;52.524;13.694;2023-05-21T11:20:33;101218.16;;;30.76;31.51
22241;BME280;11289;52.524;13.694;2023-05-21T11:22:59;101229.28;;;30.87;31.80
22241;BME280;11289;52.524;13.694;2023-05-21T11:25:25;101220.09;;;30.79;32.10
22241;BME280;11289;52.524;13.694;2023-05-21T11:28:04;101223.31;;;30.94;31.38
22241;BME280;11289;52.524;13.694;2023-05-21T11:30:36;101203.72;;;30.80;31.59
22241;BME280;11289;52.524;13.694;2023-05-21T11:35:56;101221.94;;;30.99;31.21
22241;BME280;11289;52.524;13.694;2023-05-21T11:38:27;101213.31;;;30.99;31.30
22241;BME280;11289;52.524;13.694;2023-05-21T11:40:54;101201.78;;;31.15;31.47
22241;BME280;11289;52.524;13.694;2023-05-21T11:43:20;101202.22;;;30.88;30.77
22241;BME280;11289;52.524;13.694;2023-05-21T11:45:46;101224.34;;;30.87;31.39
22241;BME280;11289;52.524;13.694;2023-05-21T11:48:12;101221.34;;;30.65;30.70
22241;BME280;11289;52.524;13.694;2023-05-21T11:50:39;101212.03;;;30.48;30.92
22241;BME280;11289;52.524;13.694;2023-05-21T11:53:07;101206.50;;;30.41;31.64
22241;BME280;11289;52.524;13.694;2023-05-21T11:55:37;101182.91;;;30.37;31.21
22241;BME280;11289;52.524;13.694;2023-05-21T11:58:05;101188.41;;;30.31;31.85
22241;BME280;11289;52.524;13.694;2023-05-21T12:00:37;101207.22;;;30.45;31.75
22241;BME280;11289;52.524;13.694;2023-05-21T12:03:04;101192.94;;;30.58;32.14
22241;BME280;11289;52.524;13.694;2023-05-21T12:05:47;101182.97;;;30.76;31.17
22241;BME280;11289;52.524;13.694;2023-05-21T12:08:23;101200.03;;;31.18;30.35
22241;BME280;11289;52.524;13.694;2023-05-21T12:10:59;101182.75;;;31.08;30.60
22241;BME280;11289;52.524;13.694;2023-05-21T12:13:47;101211.50;;;31.05;30.85
22241;BME280;11289;52.524;13.694;2023-05-21T12:16:24;101197.06;;;30.83;30.97
22241;BME280;11289;52.524;13.694;2023-05-21T12:19:25;101193.63;;;30.75;31.37
22241;BME280;11289;52.524;13.694;2023-05-21T12:21:52;101192.81;;;30.49;31.32
22241;BME280;11289;52.524;13.694;2023-05-21T12:24:22;101178.53;;;30.32;31.86
22241;BME280;11289;52.524;13.694;2023-05-21T12:27:08;101205.88;;;30.63;31.72
22241;BME280;11289;52.524;13.694;2023-05-21T12:29:42;101188.47;;;30.83;32.09
22241;BME280;11289;52.524;13.694;2023-05-21T12:32:11;101189.41;;;31.05;30.45
22241;BME280;11289;52.524;13.694;2023-05-21T12:34:50;101191.56;;;31.14;31.42
22241;BME280;11289;52.524;13.694;2023-05-21T12:37:27;101189.06;;;31.51;30.37
22241;BME280;11289;52.524;13.694;2023-05-21T12:39:58;101186.75;;;31.72;30.92
22241;BME280;11289;52.524;13.694;2023-05-21T12:42:30;101183.25;;;31.99;29.93
22241;BME280;11289;52.524;13.694;2023-05-21T12:44:57;101185.38;;;32.08;30.10
22241;BME280;11289;52.524;13.694;2023-05-21T12:47:24;101198.41;;;32.44;29.74
22241;BME280;11289;52.524;13.694;2023-05-21T12:49:58;101181.25;;;32.31;28.65
22241;BME280;11289;52.524;13.694;2023-05-21T12:52:24;101195.56;;;32.22;29.50
22241;BME280;11289;52.524;13.694;2023-05-21T12:54:53;101175.00;;;32.01;28.96
22241;BME280;11289;52.524;13.694;2023-05-21T12:57:21;101169.66;;;31.90;29.98